Time;durP1;ratioP1;P1;durP2;ratioP2;P2;SDS_P1;SDS_P2;PMS_P1;PMS_P2;Temp;Humidity;BMP_temperature;BMP_pressure;BME280_temperature;BME280_humidity;BME280_pressure;Samples;Min_cycle;Max_cycle;Signal;HPM_P1;HPM_P2
2021/06/25 00:01:57;;;;;;;6.40;5.55;;;17.40;99.90;;;;;;5069213;28;20026;-77
2021/06/25 00:04:22;;;;;;;9.45;5.38;;;17.40;99.90;;;;;;5086447;28;20512;-76
2021/06/25 00:06:48;;;;;;;8.75;5.55;;;17.40;99.90;;;;;;5086422;28;20442;-77
2021/06/25 00:09:13;;;;;;;8.20;5.75;;;17.40;99.90;;;;;;5080600;28;20514;-76
2021/06/25 00:11:39;;;;;;;6.45;5.13;;;17.40;99.90;;;;;;5076850;28;20110;-76
2021/06/25 00:14:06;;;;;;;10.98;6.13;;;17.40;99.90;;;;;;5076854;28;20032;-76
2021/06/25 00:16:31;;;;;;;6.90;6.00;;;17.40;99.90;;;;;;5088090;28;20025;-76
2021/06/25 00:18:57;;;;;;;7.80;5.57;;;17.40;99.90;;;;;;5084903;28;20016;-76
2021/06/25 00:21:22;;;;;;;9.13;5.68;;;17.40;99.90;;;;;;5081395;28;20430;-77
2021/06/25 00:23:48;;;;;;;7.25;5.93;;;17.40;99.90;;;;;;5089513;28;20056;-77
2021/06/25 00:26:14;;;;;;;7.47;6.00;;;17.40;99.90;;;;;;5084442;28;20028;-77
2021/06/25 00:28:39;;;;;;;7.65;6.30;;;17.30;99.90;;;;;;5078230;28;20028;-76
2021/06/25 00:31:04;;;;;;;9.15;6.43;;;17.30;99.90;;;;;;5089667;28;20028;-76
2021/06/25 00:33:30;;;;;;;8.30;6.28;;;17.30;99.90;;;;;;5088409;28;20028;-77
2021/06/25 00:35:55;;;;;;;7.93;6.85;;;17.30;99.90;;;;;;5082656;28;20042;-76
2021/06/25 00:38:21;;;;;;;10.18;6.20;;;17.30;99.90;;;;;;5082989;28;20065;-77
2021/06/25 00:40:46;;;;;;;9.50;6.85;;;17.20;99.90;;;;;;5085175;28;20055;-76
2021/06/25 00:43:12;;;;;;;8.57;6.57;;;17.20;99.90;;;;;;5091179;28;20101;-76
2021/06/25 00:45:37;;;;;;;8.75;6.82;;;17.20;99.90;;;;;;5090037;28;20057;-77
2021/06/25 00:48:03;;;;;;;11.10;6.28;;;17.10;99.90;;;;;;5083471;28;20515;-77
2021/06/25 00:50:32;;;;;;;10.27;6.60;;;17.10;99.90;;;;;;5073841;28;20021;-77
2021/06/25 00:52:58;;;;;;;10.85;6.82;;;17.10;99.90;;;;;;5088229;28;20506;-77
2021/06/25 00:55:44;;;;;;;8.27;5.93;;;17.00;99.90;;;;;;5079381;28;20024;-77
2021/06/25 00:58:12;;;;;;;8.65;6.32;;;17.00;99.90;;;;;;5088580;28;20032;-77
2021/06/25 01:00:37;;;;;;;7.15;5.88;;;17.00;99.90;;;;;;5081149;28;20076;-77
2021/06/25 01:03:03;;;;;;;8.50;6.05;;;17.00;99.90;;;;;;5088394;28;20134;-77
2021/06/25 01:05:29;;;;;;;8.35;6.05;;;17.00;99.90;;;;;;5085868;28;20244;-77
2021/06/25 01:07:54;;;;;;;9.05;6.72;;;17.00;99.90;;;;;;5088047;28;20044;-77
2021/06/25 01:10:20;;;;;;;7.32;5.90;;;16.90;99.90;;;;;;5073160;28;20384;-77
2021/06/25 01:12:45;;;;;;;8.35;6.30;;;16.90;99.90;;;;;;5091111;28;20058;-77
2021/06/25 01:15:12;;;;;;;10.10;6.43;;;17.00;99.90;;;;;;5086012;28;20394;-77
2021/06/25 01:17:40;;;;;;;10.25;6.38;;;16.90;99.90;;;;;;5088407;28;20087;-77
2021/06/25 01:20:10;;;;;;;7.28;6.00;;;17.00;99.90;;;;;;5087694;28;20012;-77
2021/06/25 01:22:38;;;;;;;9.50;6.13;;;16.90;99.90;;;;;;5078892;28;20028;-77
2021/06/25 01:25:07;;;;;;;8.77;6.22;;;16.90;99.90;;;;;;5077953;28;20036;-77
2021/06/25 01:27:34;;;;;;;9.57;5.78;;;16.90;99.90;;;;;;5085606;28;20391;-77
2021/06/25 01:30:00;;;;;;;9.43;6.20;;;16.90;99.90;;;;;;5077824;28;20129;-77
2021/06/25 01:32:26;;;;;;;10.68;6.07;;;16.90;99.90;;;;;;5086569;28;20452;-77
2021/06/25 01:34:52;;;;;;;8.52;6.47;;;16.90;99.90;;;;;;5085349;28;20081;-77
2021/06/25 01:37:18;;;;;;;11.50;6.80;;;16.90;99.90;;;;;;5075071;28;20671;-76
2021/06/25 01:39:48;;;;;;;9.43;6.00;;;16.80;99.90;;;;;;5074735;28;20020;-77
2021/06/25 01:42:13;;;;;;;9.63;6.28;;;16.80;99.90;;;;;;5088015;28;20025;-77
2021/06/25 01:44:39;;;;;;;7.78;6.47;;;16.80;99.90;;;;;;5088230;28;20544;-77
2021/06/25 01:47:05;;;;;;;10.13;6.40;;;16.80;99.90;;;;;;5082322;28;20025;-77
2021/06/25 01:49:31;;;;;;;8.77;6.07;;;16.80;99.90;;;;;;5083545;28;20115;-77
2021/06/25 01:51:57;;;;;;;7.65;6.43;;;16.80;99.90;;;;;;5087625;28;20534;-77
2021/06/25 01:54:23;;;;;;;8.00;6.15;;;16.80;99.90;;;;;;5081397;28;20115;-77
2021/06/25 01:56:48;;;;;;;7.53;6.00;;;16.80;99.90;;;;;;5077973;28;20483;-77
2021/06/25 01:59:14;;;;;;;7.38;5.80;;;16.80;99.90;;;;;;5079374;28;20108;-77
2021/06/25 02:01:40;;;;;;;8.88;6.07;;;16.80;99.90;;;;;;5081356;28;20062;-77
2021/06/25 02:04:05;;;;;;;7.85;6.00;;;16.90;99.90;;;;;;5073426;28;20052;-77
2021/06/25 02:06:31;;;;;;;6.85;6.00;;;16.90;99.90;;;;;;5082084;28;20079;-77
2021/06/25 02:08:56;;;;;;;10.52;6.18;;;16.90;99.90;;;;;;5074434;28;20041;-77
2021/06/25 02:11:23;;;;;;;7.88;6.50;;;16.90;99.90;;;;;;5083189;28;20036;-77
2021/06/25 02:13:49;;;;;;;7.60;6.13;;;16.90;99.90;;;;;;5084364;28;20032;-77
2021/06/25 02:16:14;;;;;;;7.97;6.75;;;16.90;99.90;;;;;;5086074;28;20220;-77
2021/06/25 02:18:40;;;;;;;8.23;6.40;;;16.80;99.90;;;;;;5077721;28;20016;-77
2021/06/25 02:21:06;;;;;;;6.82;6.05;;;16.90;99.90;;;;;;5085802;28;20031;-77
2021/06/25 02:23:32;;;;;;;8.10;6.45;;;16.90;99.90;;;;;;5080065;28;20028;-77
2021/06/25 02:25:57;;;;;;;6.72;5.97;;;16.90;99.90;;;;;;5082765;28;20046;-77
2021/06/25 02:28:23;;;;;;;7.55;6.55;;;16.90;99.90;;;;;;5081372;28;20028;-77
2021/06/25 02:30:49;;;;;;;8.07;6.55;;;16.90;99.90;;;;;;5080370;28;20496;-77
2021/06/25 02:33:14;;;;;;;9.55;6.40;;;16.90;99.90;;;;;;5080012;28;20033;-77
2021/06/25 02:35:40;;;;;;;8.00;5.88;;;16.90;99.90;;;;;;5088257;28;20016;-77
2021/06/25 02:38:05;;;;;;;8.07;5.88;;;16.90;99.90;;;;;;5083458;28;20475;-77
2021/06/25 02:40:31;;;;;;;9.52;6.72;;;16.90;99.90;;;;;;5077388;28;20032;-77
2021/06/25 02:42:56;;;;;;;8.73;6.15;;;16.90;99.90;;;;;;5077616;28;20111;-77
2021/06/25 02:45:22;;;;;;;8.15;6.50;;;16.90;99.90;;;;;;5082775;28;20028;-77
2021/06/25 02:47:48;;;;;;;7.35;5.70;;;16.90;99.90;;;;;;5089100;28;20046;-77
2021/06/25 02:50:14;;;;;;;8.95;6.20;;;16.90;99.90;;;;;;5089071;28;20020;-77
2021/06/25 02:52:41;;;;;;;8.07;6.10;;;16.90;99.90;;;;;;5089243;28;20107;-77
2021/06/25 02:55:08;;;;;;;9.93;6.70;;;16.90;99.90;;;;;;5081752;28;20032;-78
2021/06/25 02:57:33;;;;;;;7.43;6.03;;;16.90;99.90;;;;;;5076666;28;20027;-77
2021/06/25 02:59:59;;;;;;;8.27;5.90;;;16.90;99.90;;;;;;5081251;28;20029;-77
2021/06/25 03:02:25;;;;;;;8.82;6.82;;;16.90;99.90;;;;;;5088405;28;20031;-78
2021/06/25 03:04:50;;;;;;;9.93;6.70;;;16.90;99.90;;;;;;5084182;28;20035;-77
2021/06/25 03:07:16;;;;;;;6.95;6.05;;;16.80;99.90;;;;;;5079432;28;20472;-77
2021/06/25 03:09:41;;;;;;;8.60;6.05;;;16.80;99.90;;;;;;5079123;28;20474;-77
2021/06/25 03:12:07;;;;;;;8.25;6.32;;;16.90;99.90;;;;;;5079306;28;20017;-77
2021/06/25 03:14:34;;;;;;;7.38;5.55;;;16.90;99.90;;;;;;5081015;28;20056;-77
2021/06/25 03:17:00;;;;;;;7.38;5.63;;;16.90;99.90;;;;;;5075088;28;20090;-77
2021/06/25 03:19:25;;;;;;;7.78;5.63;;;16.90;99.90;;;;;;5081426;28;20471;-77
2021/06/25 03:21:51;;;;;;;10.60;6.40;;;16.90;99.90;;;;;;5081500;28;20032;-77
2021/06/25 03:24:16;;;;;;;8.10;6.50;;;16.90;99.90;;;;;;5076069;28;20363;-78
2021/06/25 03:26:42;;;;;;;8.00;6.30;;;16.90;99.90;;;;;;5076187;28;20043;-77
2021/06/25 03:29:07;;;;;;;8.00;6.53;;;17.00;99.90;;;;;;5088284;28;20035;-77
2021/06/25 03:31:33;;;;;;;9.13;6.35;;;17.00;99.90;;;;;;5078104;28;20120;-77
2021/06/25 03:33:58;;;;;;;7.68;6.47;;;17.00;99.90;;;;;;5085463;28;20423;-77
2021/06/25 03:36:24;;;;;;;8.73;6.45;;;17.00;99.90;;;;;;5082697;28;20016;-77
2021/06/25 03:38:50;;;;;;;9.50;6.60;;;17.00;99.90;;;;;;5080404;28;20103;-77
2021/06/25 03:41:15;;;;;;;8.00;6.30;;;17.10;99.90;;;;;;5082151;28;20077;-77
2021/06/25 03:43:41;;;;;;;8.82;6.38;;;17.10;99.90;;;;;;5088398;28;20092;-77
2021/06/25 03:46:06;;;;;;;8.00;6.32;;;17.10;99.90;;;;;;5080036;28;20033;-78
2021/06/25 03:48:32;;;;;;;9.23;6.88;;;17.10;99.90;;;;;;5081838;28;20031;-77
2021/06/25 03:50:57;;;;;;;9.65;6.85;;;17.10;99.90;;;;;;5071584;28;20025;-78
2021/06/25 03:53:23;;;;;;;7.25;6.00;;;17.10;99.90;;;;;;5077681;28;20028;-77
2021/06/25 03:58:32;;;;;;;7.90;5.93;;;17.20;99.90;;;;;;5076476;28;20028;-77
2021/06/25 04:00:58;;;;;;;7.55;5.85;;;17.20;99.90;;;;;;5089304;28;20020;-77
2021/06/25 04:03:24;;;;;;;8.00;6.32;;;17.30;99.90;;;;;;5088720;28;20024;-78
2021/06/25 04:05:50;;;;;;;7.93;6.00;;;17.30;99.90;;;;;;5084327;28;20035;-77
2021/06/25 04:08:16;;;;;;;10.27;6.40;;;17.30;99.90;;;;;;5080904;28;20060;-77
2021/06/25 04:10:42;;;;;;;8.50;6.50;;;17.40;99.90;;;;;;5081768;28;20037;-78
2021/06/25 04:13:08;;;;;;;10.93;6.13;;;17.40;99.90;;;;;;5089900;28;20032;-77
2021/06/25 04:15:33;;;;;;;8.27;6.30;;;17.40;99.90;;;;;;5083548;28;20394;-77
2021/06/25 04:17:59;;;;;;;8.27;5.88;;;17.40;99.90;;;;;;5091021;28;20471;-77
2021/06/25 04:20:24;;;;;;;8.43;6.28;;;17.50;99.90;;;;;;5086409;28;20415;-77
2021/06/25 04:22:50;;;;;;;8.85;6.50;;;17.50;99.90;;;;;;5087764;28;20046;-77
2021/06/25 04:25:15;;;;;;;11.07;6.32;;;17.60;99.90;;;;;;5086639;28;20568;-77
2021/06/25 04:27:41;;;;;;;10.25;6.30;;;17.60;99.90;;;;;;5092567;28;20042;-77
2021/06/25 04:30:10;;;;;;;7.00;5.90;;;17.70;99.90;;;;;;5089901;28;20043;-77
2021/06/25 04:32:35;;;;;;;8.60;6.43;;;17.70;99.90;;;;;;5084516;28;20081;-77
2021/06/25 04:35:01;;;;;;;9.57;6.43;;;17.80;99.90;;;;;;5077646;28;20020;-77
2021/06/25 04:37:26;;;;;;;7.20;6.22;;;17.80;99.90;;;;;;5087908;28;20474;-77
2021/06/25 04:39:52;;;;;;;10.18;6.22;;;17.90;99.90;;;;;;5079969;28;20431;-77
2021/06/25 04:42:17;;;;;;;9.57;6.60;;;17.90;99.90;;;;;;5086184;28;20077;-78
2021/06/25 04:44:43;;;;;;;10.50;6.70;;;17.90;99.90;;;;;;5085955;28;20097;-77
2021/06/25 04:47:08;;;;;;;7.95;6.20;;;18.00;99.90;;;;;;5086514;28;20036;-78
2021/06/25 04:49:38;;;;;;;7.28;5.95;;;18.00;99.90;;;;;;5088164;28;20024;-78
2021/06/25 04:52:06;;;;;;;9.40;6.47;;;18.10;99.90;;;;;;5080504;28;20482;-77
2021/06/25 04:54:31;;;;;;;8.20;6.63;;;18.10;99.90;;;;;;5087147;28;20119;-78
2021/06/25 04:56:57;;;;;;;10.10;6.70;;;18.20;99.90;;;;;;5088517;28;20115;-77
2021/06/25 04:59:22;;;;;;;9.98;6.80;;;18.20;99.90;;;;;;5088993;28;20048;-77
2021/06/25 05:01:48;;;;;;;11.98;5.90;;;18.30;99.90;;;;;;5081879;28;20494;-77
2021/06/25 05:04:13;;;;;;;12.88;6.60;;;18.20;99.90;;;;;;5083129;28;20024;-77
2021/06/25 05:06:39;;;;;;;9.80;6.35;;;18.30;99.90;;;;;;5087133;28;20667;-77
2021/06/25 05:09:04;;;;;;;9.82;6.45;;;18.30;99.90;;;;;;5090518;28;20051;-77
2021/06/25 05:11:30;;;;;;;9.82;6.30;;;18.30;99.90;;;;;;5089050;28;20517;-77
2021/06/25 05:13:55;;;;;;;8.65;6.22;;;18.30;99.90;;;;;;5082204;28;20063;-78
2021/06/25 05:16:21;;;;;;;10.35;6.75;;;18.40;99.90;;;;;;5089510;28;20055;-76
2021/06/25 05:18:47;;;;;;;15.25;6.55;;;18.40;99.90;;;;;;5078804;28;20483;-75
2021/06/25 05:21:12;;;;;;;9.18;6.40;;;18.50;99.90;;;;;;5080782;28;20025;-75
2021/06/25 05:23:38;;;;;;;10.40;6.57;;;18.50;99.90;;;;;;5088506;28;20088;-76
2021/06/25 05:26:03;;;;;;;10.02;6.45;;;18.60;99.90;;;;;;5084714;28;20028;-75
2021/06/25 05:28:29;;;;;;;10.77;7.28;;;18.60;99.90;;;;;;5079860;28;20036;-76
2021/06/25 05:30:58;;;;;;;10.15;6.55;;;18.70;99.90;;;;;;5090289;28;20488;-76
2021/06/25 05:33:23;;;;;;;9.85;7.18;;;18.70;99.90;;;;;;5079156;28;20032;-75
2021/06/25 05:35:49;;;;;;;10.68;7.05;;;18.80;99.90;;;;;;5081174;28;20021;-76
2021/06/25 05:38:16;;;;;;;10.70;6.88;;;18.80;99.90;;;;;;5083387;28;20032;-76
2021/06/25 05:40:43;;;;;;;11.18;7.20;;;18.80;99.90;;;;;;5083703;28;20020;-76
2021/06/25 05:43:09;;;;;;;11.23;6.63;;;18.90;99.90;;;;;;5087583;28;20487;-78
2021/06/25 05:45:35;;;;;;;11.55;6.60;;;18.90;99.90;;;;;;5080080;28;20031;-75
2021/06/25 05:48:02;;;;;;;9.95;6.90;;;19.00;99.90;;;;;;5081617;28;20038;-76
2021/06/25 05:50:27;;;;;;;10.80;6.78;;;19.00;99.90;;;;;;5084706;28;20028;-76
2021/06/25 05:52:53;;;;;;;18.75;7.20;;;19.10;99.90;;;;;;5081158;28;20016;-76
2021/06/25 05:55:19;;;;;;;10.45;7.07;;;19.10;99.90;;;;;;5079992;28;20039;-76
2021/06/25 05:57:47;;;;;;;12.05;6.45;;;19.20;99.90;;;;;;5082970;28;20020;-76
2021/06/25 06:00:14;;;;;;;10.98;7.03;;;19.30;99.90;;;;;;5074541;28;20047;-76
2021/06/25 06:02:39;;;;;;;11.20;6.63;;;19.30;99.90;;;;;;5081137;28;20452;-76
2021/06/25 06:05:06;;;;;;;13.52;6.85;;;19.40;99.90;;;;;;5083765;28;20032;-76
2021/06/25 06:07:31;;;;;;;9.20;6.55;;;19.50;99.90;;;;;;5084716;28;20410;-76
2021/06/25 06:09:57;;;;;;;10.45;6.50;;;19.50;99.90;;;;;;5080761;28;20035;-76
2021/06/25 06:12:22;;;;;;;10.20;7.00;;;19.40;99.90;;;;;;5081959;28;20059;-77
2021/06/25 06:14:49;;;;;;;11.48;6.97;;;19.50;99.90;;;;;;5083957;28;20032;-77
2021/06/25 06:17:18;;;;;;;11.25;6.13;;;19.50;99.90;;;;;;5085710;28;20028;-77
2021/06/25 06:19:46;;;;;;;9.43;6.50;;;19.60;99.90;;;;;;5085110;28;20024;-77
2021/06/25 06:33:16;;;;;;;8.30;5.97;;;19.70;99.90;;;;;;5082339;28;20798;-77
2021/06/25 06:35:41;;;;;;;11.63;6.20;;;19.80;99.90;;;;;;5075778;28;20513;-77
2021/06/25 06:38:07;;;;;;;9.98;6.75;;;19.90;99.90;;;;;;5083718;28;20143;-77
2021/06/25 06:40:34;;;;;;;9.98;6.30;;;20.00;99.90;;;;;;5085651;28;20026;-78
2021/06/25 06:43:00;;;;;;;8.73;6.00;;;20.00;99.90;;;;;;5082169;28;20020;-77
2021/06/25 06:45:26;;;;;;;8.60;5.63;;;20.10;99.90;;;;;;5080860;28;20032;-76
2021/06/25 06:47:52;;;;;;;12.60;6.18;;;20.20;99.90;;;;;;5086632;28;20031;-77
2021/06/25 06:50:18;;;;;;;8.65;6.88;;;20.20;99.90;;;;;;5081197;28;20037;-76
2021/06/25 06:52:46;;;;;;;11.52;6.00;;;20.20;99.90;;;;;;5073818;28;20029;-77
2021/06/25 06:55:14;;;;;;;7.03;5.72;;;20.30;99.90;;;;;;5077286;28;20040;-77
2021/06/25 06:57:39;;;;;;;9.90;5.60;;;20.30;99.90;;;;;;5076285;28;20111;-78
2021/06/25 07:00:07;;;;;;;9.60;5.93;;;20.40;99.90;;;;;;5077263;28;20114;-77
2021/06/25 07:02:35;;;;;;;10.95;6.05;;;20.40;99.90;;;;;;5084269;28;20537;-77
2021/06/25 07:05:01;;;;;;;10.52;5.25;;;20.40;99.90;;;;;;5083940;28;20084;-77
2021/06/25 07:07:26;;;;;;;11.75;5.20;;;20.40;99.90;;;;;;5085153;28;20048;-80
2021/06/25 07:09:52;;;;;;;10.52;5.90;;;20.40;99.90;;;;;;5082203;28;20025;-87
2021/06/25 07:12:17;;;;;;;9.60;5.90;;;20.40;99.90;;;;;;5073971;28;20372;-80
2021/06/25 07:14:43;;;;;;;8.60;4.95;;;20.30;99.90;;;;;;5084730;28;20028;-75
2021/06/25 07:17:08;;;;;;;8.20;5.22;;;20.20;99.90;;;;;;5080533;28;20036;-80
2021/06/25 07:19:33;;;;;;;9.10;4.97;;;20.20;99.90;;;;;;5070058;28;20557;-76
2021/06/25 07:21:59;;;;;;;10.40;4.90;;;20.10;99.90;;;;;;5077394;28;20028;-76
2021/06/25 07:24:24;;;;;;;6.72;4.97;;;20.10;99.90;;;;;;5083570;28;20501;-75
2021/06/25 07:26:50;;;;;;;9.52;5.75;;;20.10;99.90;;;;;;5083377;28;20032;-76
2021/06/25 07:29:15;;;;;;;8.23;4.70;;;20.20;99.90;;;;;;5078904;28;20055;-75
2021/06/25 07:31:41;;;;;;;6.50;4.95;;;20.30;99.90;;;;;;5078941;28;20058;-75
2021/06/25 07:34:07;;;;;;;10.15;4.80;;;20.30;99.90;;;;;;5076775;28;20113;-74
2021/06/25 07:36:33;;;;;;;9.68;5.82;;;20.40;99.90;;;;;;5077413;28;20464;-75
2021/06/25 07:38:58;;;;;;;10.32;5.00;;;20.40;99.90;;;;;;5072263;28;20028;-74
2021/06/25 07:41:24;;;;;;;6.57;4.85;;;20.40;99.90;;;;;;5080435;28;20111;-76
2021/06/25 07:43:49;;;;;;;4.63;4.13;;;20.40;99.90;;;;;;5068658;28;20016;-75
2021/06/25 07:46:15;;;;;;;8.90;5.35;;;20.60;99.90;;;;;;5074605;28;20056;-75
2021/06/25 07:48:40;;;;;;;6.10;4.80;;;20.60;99.20;;;;;;5076192;28;20394;-74
2021/06/25 07:51:06;;;;;;;7.22;4.18;;;20.70;99.40;;;;;;5080338;28;20024;-75
2021/06/25 07:53:32;;;;;;;9.40;5.50;;;20.70;99.90;;;;;;5086889;28;20545;-74
2021/06/25 07:55:57;;;;;;;8.75;4.80;;;20.70;98.60;;;;;;5079519;28;20028;-75
2021/06/25 07:58:23;;;;;;;8.45;5.53;;;20.70;98.10;;;;;;5080494;28;20033;-75
2021/06/25 08:00:49;;;;;;;9.55;5.30;;;20.60;97.50;;;;;;5079096;28;20021;-74
2021/06/25 08:03:14;;;;;;;7.10;5.55;;;20.80;97.60;;;;;;5080531;28;20021;-75
2021/06/25 08:05:40;;;;;;;8.40;5.78;;;21.00;96.90;;;;;;5080119;28;20384;-75
2021/06/25 08:08:06;;;;;;;6.05;4.85;;;21.10;96.50;;;;;;5074787;28;20040;-74
2021/06/25 08:10:31;;;;;;;8.20;4.70;;;21.20;96.00;;;;;;5078390;28;20037;-75
2021/06/25 08:12:57;;;;;;;8.35;5.72;;;21.30;95.70;;;;;;5085294;28;20028;-75
2021/06/25 08:15:22;;;;;;;12.95;5.80;;;21.40;95.30;;;;;;5088444;28;20031;-74
2021/06/25 08:17:48;;;;;;;8.07;4.93;;;21.40;94.50;;;;;;5087184;28;20043;-75
2021/06/25 08:20:14;;;;;;;8.00;4.20;;;21.40;95.60;;;;;;5077434;28;21513;-75
2021/06/25 08:22:39;;;;;;;8.65;5.22;;;21.40;95.90;;;;;;5087147;28;20020;-75
2021/06/25 08:25:05;;;;;;;7.43;4.55;;;21.50;95.40;;;;;;5076771;28;20395;-75
2021/06/25 08:27:31;;;;;;;10.55;4.95;;;21.50;95.10;;;;;;5070543;28;20170;-74
2021/06/25 08:29:57;;;;;;;6.50;5.10;;;21.60;94.60;;;;;;5076899;28;20111;-76
2021/06/25 08:32:22;;;;;;;11.20;5.10;;;21.70;93.40;;;;;;5079314;28;20027;-75
2021/06/25 08:34:57;;;;;;;7.60;5.28;;;21.80;92.60;;;;;;5076837;28;20032;-73
2021/06/25 08:37:22;;;;;;;5.60;5.00;;;21.80;94.00;;;;;;5079625;28;20449;-74
2021/06/25 08:39:48;;;;;;;6.40;4.88;;;21.80;92.60;;;;;;5078961;28;20066;-76
2021/06/25 08:42:17;;;;;;;7.75;4.70;;;21.80;92.60;;;;;;5082822;28;20103;-74
2021/06/25 08:44:43;;;;;;;7.30;4.85;;;21.80;92.30;;;;;;5090214;28;20032;-74
2021/06/25 08:47:11;;;;;;;9.35;5.85;;;21.70;91.40;;;;;;5085385;28;20039;-75
2021/06/25 08:49:40;;;;;;;7.05;4.70;;;21.70;91.20;;;;;;5087531;28;20165;-78
2021/06/25 08:52:06;;;;;;;5.70;4.35;;;21.60;91.60;;;;;;5081227;28;20024;-78
2021/06/25 08:54:33;;;;;;;5.63;4.45;;;21.60;92.10;;;;;;5078427;28;20115;-77
2021/06/25 08:57:03;;;;;;;7.43;4.53;;;21.50;88.90;;;;;;5082883;28;20411;-77
2021/06/25 08:59:28;;;;;;;8.73;4.57;;;21.40;90.90;;;;;;5077546;28;20017;-76
2021/06/25 09:01:54;;;;;;;10.40;5.28;;;21.30;91.20;;;;;;5088239;28;20505;-77
2021/06/25 09:04:37;;;;;;;6.40;4.55;;;21.40;90.90;;;;;;5084582;28;20020;-77
2021/06/25 09:07:05;;;;;;;5.63;3.92;;;21.50;92.90;;;;;;5078844;28;20071;-79
2021/06/25 09:09:56;;;;;;;6.93;4.97;;;21.60;92.20;;;;;;5082967;28;20040;-79
2021/06/25 09:12:23;;;;;;;8.07;4.65;;;21.80;91.00;;;;;;5070834;28;20043;-77
2021/06/25 09:15:12;;;;;;;10.18;4.80;;;22.00;89.30;;;;;;5077774;28;20025;-81
2021/06/25 09:18:03;;;;;;;8.48;5.40;;;22.20;88.90;;;;;;5084867;28;20013;-79
2021/06/25 09:20:50;;;;;;;9.63;4.88;;;22.30;88.70;;;;;;5073831;28;20020;-77
2021/06/25 09:23:40;;;;;;;5.93;4.38;;;22.20;90.00;;;;;;5074909;28;20020;-76
2021/06/25 09:26:13;;;;;;;5.57;4.40;;;22.20;88.10;;;;;;5083322;28;20031;-77
2021/06/25 09:28:44;;;;;;;7.40;4.15;;;22.30;85.30;;;;;;5077978;28;20030;-77
2021/06/25 09:31:16;;;;;;;;;;;22.30;84.20;;;;;;5090376;28;20020;-76
2021/06/25 09:33:53;;;;;;;6.22;4.30;;;22.20;84.90;;;;;;5083736;28;19916;-77
2021/06/25 09:36:23;;;;;;;5.05;3.92;;;22.20;84.60;;;;;;5082632;28;20017;-75
2021/06/25 09:39:07;;;;;;;6.50;4.85;;;22.20;83.50;;;;;;5077136;28;20023;-77
2021/06/25 09:41:33;;;;;;;3.92;2.95;;;22.30;85.10;;;;;;5083390;28;20040;-76
2021/06/25 09:44:01;;;;;;;5.00;3.72;;;22.60;87.60;;;;;;5079648;28;20032;-78
2021/06/25 09:46:41;;;;;;;10.80;4.07;;;22.70;86.30;;;;;;5080326;28;20036;-76
2021/06/25 09:49:14;;;;;;;5.68;4.38;;;22.90;85.80;;;;;;5078718;28;20046;-77
2021/06/25 09:51:52;;;;;;;6.85;3.72;;;23.00;80.60;;;;;;5078855;28;20047;-73
2021/06/25 09:54:18;;;;;;;8.40;4.30;;;22.90;83.40;;;;;;5077338;28;20056;-74
2021/06/25 09:56:55;;;;;;;5.82;4.45;;;22.90;83.00;;;;;;5077824;28;20101;-74
2021/06/25 09:59:32;;;;;;;6.60;4.22;;;23.00;81.60;;;;;;5077919;28;20028;-76
2021/06/25 10:02:17;;;;;;;6.80;4.30;;;23.00;84.50;;;;;;5078210;28;20027;-73
2021/06/25 10:04:43;;;;;;;5.80;4.63;;;23.00;78.90;;;;;;5071219;28;20020;-73
2021/06/25 10:07:09;;;;;;;7.63;4.82;;;23.00;77.20;;;;;;5075089;28;20116;-73
2021/06/25 10:09:35;;;;;;;5.82;4.40;;;22.90;78.60;;;;;;5077862;28;20032;-73
2021/06/25 10:12:01;;;;;;;6.88;4.32;;;22.70;82.80;;;;;;5077881;28;20032;-74
2021/06/25 10:14:28;;;;;;;4.93;4.00;;;22.60;81.40;;;;;;5078488;28;20039;-73
2021/06/25 10:16:53;;;;;;;7.63;5.40;;;22.50;81.90;;;;;;5081824;28;20028;-75
2021/06/25 10:19:19;;;;;;;8.93;5.50;;;22.40;82.70;;;;;;5078152;28;20278;-74
2021/06/25 10:21:50;;;;;;;10.18;5.63;;;22.20;83.60;;;;;;5075215;28;20418;-73
2021/06/25 10:24:16;;;;;;;7.50;4.50;;;22.30;83.90;;;;;;5082104;28;20044;-74
2021/06/25 10:26:44;;;;;;;6.90;4.78;;;22.60;86.70;;;;;;5075897;28;20028;-78
2021/06/25 10:29:10;;;;;;;7.70;4.85;;;22.90;80.20;;;;;;5078587;28;20103;-76
2021/06/25 10:31:36;;;;;;;8.63;4.57;;;23.00;81.50;;;;;;5079167;28;20032;-75
2021/06/25 10:34:02;;;;;;;5.22;3.75;;;23.10;81.30;;;;;;5085785;28;20031;-80
2021/06/25 10:36:31;;;;;;;4.70;4.15;;;23.00;74.70;;;;;;5082330;28;20336;-76
2021/06/25 10:39:04;;;;;;;4.28;3.80;;;23.00;75.50;;;;;;5081071;28;20020;-77
2021/06/25 10:41:56;;;;;;;7.70;4.40;;;23.30;76.50;;;;;;5083015;28;20440;-77
2021/06/25 10:44:35;;;;;;;4.18;3.53;;;23.70;73.60;;;;;;5088060;28;20054;-76
2021/06/25 10:47:27;;;;;;;4.50;3.85;;;24.20;74.30;;;;;;5073784;28;20478;-75
2021/06/25 10:49:59;;;;;;;5.25;3.78;;;24.60;71.40;;;;;;5080646;28;20462;-75
2021/06/25 10:52:38;;;;;;;5.90;3.38;;;24.80;66.50;;;;;;5077383;28;20403;-75
2021/06/25 10:55:05;;;;;;;6.88;3.22;;;24.90;65.90;;;;;;5081127;28;20032;-84
2021/06/25 10:57:37;;;;;;;6.40;3.70;;;24.70;63.90;;;;;;5076489;28;20016;-78
2021/06/25 11:00:06;;;;;;;4.35;3.30;;;24.70;64.30;;;;;;5080240;28;20103;-80
2021/06/25 11:02:47;;;;;;;4.85;2.90;;;24.50;63.90;;;;;;5078892;28;20506;-79
2021/06/25 11:05:27;;;;;;;5.60;3.40;;;24.40;65.40;;;;;;5080382;28;20040;-78
2021/06/25 11:07:57;;;;;;;6.97;3.53;;;24.30;65.10;;;;;;5078088;28;20040;-78
2021/06/25 11:10:25;;;;;;;3.50;3.17;;;24.30;63.70;;;;;;5074520;28;20739;-78
2021/06/25 11:13:14;;;;;;;4.05;3.17;;;24.10;62.70;;;;;;5081944;28;20114;-79
2021/06/25 11:15:41;;;;;;;4.85;2.88;;;24.00;62.30;;;;;;5070521;28;20032;-78
2021/06/25 11:18:23;;;;;;;6.55;3.10;;;24.10;62.20;;;;;;5077059;28;20753;-79
2021/06/25 11:20:53;;;;;;;4.72;3.38;;;24.10;65.30;;;;;;5083552;28;20111;-81
2021/06/25 11:23:25;;;;;;;4.28;3.03;;;24.20;62.00;;;;;;5079942;28;20024;-76
2021/06/25 11:25:55;;;;;;;5.85;3.40;;;24.20;63.10;;;;;;5085086;28;20207;-76
2021/06/25 11:28:36;;;;;;;4.47;3.13;;;24.20;63.10;;;;;;5081998;28;20020;-76
2021/06/25 11:31:14;;;;;;;;;;;24.30;62.70;;;;;;5082369;28;20028;-77
2021/06/25 11:33:47;;;;;;;3.08;2.55;;;24.40;61.90;;;;;;5081714;28;19916;-76
2021/06/25 11:36:51;;;;;;;6.35;2.70;;;24.60;59.90;;;;;;5083717;28;20089;-78
2021/06/25 11:39:17;;;;;;;4.80;2.72;;;24.80;60.60;;;;;;5082442;28;20035;-77
2021/06/25 11:41:52;;;;;;;3.35;2.72;;;25.20;58.80;;;;;;5085484;28;20024;-77
2021/06/25 11:44:20;;;;;;;3.95;2.60;;;25.40;58.50;;;;;;5084430;28;20047;-77
2021/06/25 11:46:57;;;;;;;3.75;2.45;;;25.40;59.60;;;;;;5082914;28;20032;-78
2021/06/25 11:49:39;;;;;;;4.05;2.67;;;25.60;58.30;;;;;;5085029;28;20115;-78
2021/06/25 11:52:13;;;;;;;2.55;2.35;;;25.90;58.70;;;;;;5084928;28;20043;-77
2021/06/25 11:54:41;;;;;;;4.80;3.05;;;26.00;58.50;;;;;;5082521;28;20119;-78
2021/06/25 11:57:19;;;;;;;4.93;3.35;;;26.10;56.60;;;;;;5085253;28;20023;-81
2021/06/25 12:00:30;;;;;;;4.20;2.97;;;26.50;54.30;;;;;;5084883;28;20028;-81
2021/06/25 12:02:59;;;;;;;3.10;2.53;;;27.10;55.30;;;;;;5059542;28;20062;-79
2021/06/25 12:05:32;;;;;;;2.97;2.58;;;27.30;56.90;;;;;;5082449;28;20577;-80
2021/06/25 12:08:11;;;;;;;3.42;2.70;;;27.40;53.60;;;;;;5079874;28;20131;-78
2021/06/25 12:10:38;;;;;;;4.28;2.75;;;27.00;53.50;;;;;;5083802;28;20024;-77
2021/06/25 12:13:04;;;;;;;5.10;2.53;;;26.70;53.50;;;;;;5080884;28;20494;-77
2021/06/25 12:15:29;;;;;;;6.07;2.97;;;26.40;55.40;;;;;;5088333;28;20071;-77
2021/06/25 12:17:58;;;;;;;2.83;2.53;;;26.20;54.20;;;;;;5084280;28;20109;-78
2021/06/25 12:20:29;;;;;;;3.42;2.55;;;26.00;56.10;;;;;;5088075;28;20136;-76
2021/06/25 12:22:59;;;;;;;3.90;2.90;;;25.80;55.80;;;;;;5087892;28;20478;-77
2021/06/25 12:25:50;;;;;;;3.13;2.60;;;25.50;55.70;;;;;;5087683;28;20118;-77
2021/06/25 12:28:20;;;;;;;3.20;2.85;;;25.30;56.70;;;;;;5089347;28;20089;-77
2021/06/25 12:30:52;;;;;;;4.03;2.50;;;25.30;57.50;;;;;;5087458;28;20050;-77
2021/06/25 12:33:23;;;;;;;3.30;2.63;;;25.20;59.00;;;;;;5087923;28;20024;-77
2021/06/25 12:35:50;;;;;;;4.60;2.83;;;25.30;59.80;;;;;;5086637;28;20032;-79
2021/06/25 12:38:18;;;;;;;3.65;2.83;;;25.30;59.60;;;;;;5085499;28;20032;-79
2021/06/25 12:40:50;;;;;;;4.00;3.03;;;25.20;56.80;;;;;;5084906;28;20029;-82
2021/06/25 12:43:20;;;;;;;4.28;2.90;;;25.20;57.90;;;;;;5075783;28;20020;-80
2021/06/25 12:45:55;;;;;;;3.00;2.78;;;25.40;59.60;;;;;;5082706;28;20024;-81
2021/06/25 12:48:26;;;;;;;3.85;2.45;;;25.50;58.90;;;;;;5089513;28;20135;-83
2021/06/25 12:50:59;;;;;;;;;;;25.60;58.20;;;;;;5083680;28;20026;-80
2021/06/25 12:53:29;;;;;;;3.10;2.60;;;25.70;57.60;;;;;;5076701;28;19916;-80
2021/06/25 12:55:56;;;;;;;3.45;2.60;;;26.00;55.70;;;;;;5080243;28;20029;-80
2021/06/25 12:58:22;;;;;;;3.53;3.00;;;26.40;55.10;;;;;;5077053;28;20021;-78
2021/06/25 13:00:59;;;;;;;3.20;2.53;;;26.90;56.50;;;;;;5085306;28;20675;-77
2021/06/25 13:03:27;;;;;;;3.80;2.67;;;28.30;53.00;;;;;;5079299;28;20549;-77
2021/06/25 13:05:54;;;;;;;3.40;2.70;;;30.20;51.40;;;;;;5068660;28;20024;-78